Time,TemperatureF,DewpointF,PressureIn,WindDirection,WindDirectionDegrees,WindSpeedMPH,WindSpeedGustMPH,Humidity,HourlyPrecipIn,Conditions,Clouds,dailyrainin,SoftwareType,DateUTC
2013-09-07 00:14:00,44.0,42.0,30.19,WSW,248,0.0,-999.0,92,-99.99,,,-99.99,,2013-09-07 04:14:00,
2013-09-07 00:24:00,43.0,41.0,30.19,WSW,248,0.0,-999.0,92,-99.99,,,-99.99,,2013-09-07 04:24:00,
2013-09-07 00:43:00,43.0,41.0,30.19,WSW,248,0.0,-999.0,92,-99.99,,,-99.99,,2013-09-07 04:43:00,
2013-09-07 00:54:00,43.0,41.0,30.19,WSW,248,0.0,-999.0,93,-99.99,,,-99.99,,2013-09-07 04:54:00,
2013-09-07 01:13:00,44.0,42.0,30.19,WSW,248,0.0,-999.0,93,-99.99,,,-99.99,,2013-09-07 05:13:00,
2013-09-07 01:23:00,43.0,41.0,30.18,WSW,248,0.0,-999.0,93,-99.99,,,-99.99,,2013-09-07 05:23:00,
2013-09-07 01:52:00,43.0,41.0,30.18,WSW,248,0.0,-999.0,93,-99.99,,,-99.99,,2013-09-07 05:52:00,
2013-09-07 02:13:00,43.0,41.0,30.17,WSW,248,0.0,-999.0,93,-99.99,,,-99.99,,2013-09-07 06:13:00,
2013-09-07 02:22:00,43.0,41.0,30.17,WSW,248,0.0,-999.0,93,-99.99,,,-99.99,,2013-09-07 06:22:00,
2013-09-07 02:42:00,42.0,40.0,30.16,WSW,248,0.0,-999.0,93,-99.99,,,-99.99,,2013-09-07 06:42:00,
2013-09-07 02:52:00,42.0,40.0,30.16,WSW,248,0.0,-999.0,93,-99.99,,,-99.99,,2013-09-07 06:52:00,
2013-09-07 03:12:00,42.0,40.0,30.16,WSW,248,0.0,-999.0,93,-99.99,,,-99.99,,2013-09-07 07:12:00,
2013-09-07 03:22:00,42.0,40.0,30.16,WSW,248,0.0,-999.0,93,-99.99,,,-99.99,,2013-09-07 07:22:00,
2013-09-07 03:42:00,42.0,40.0,30.16,WSW,248,0.0,-999.0,93,-99.99,,,-99.99,,2013-09-07 07:42:00,
2013-09-07 03:52:00,42.0,40.0,30.16,WSW,248,0.0,-999.0,93,-99.99,,,-99.99,,2013-09-07 07:52:00,
2013-09-07 04:12:00,42.0,40.0,30.16,WSW,248,0.0,-999.0,94,-99.99,,,-99.99,,2013-09-07 08:12:00,
2013-09-07 04:22:00,41.0,39.0,30.16,WSW,248,0.0,-999.0,93,-99.99,,,-99.99,,2013-09-07 08:22:00,
2013-09-07 04:43:00,41.0,39.0,30.15,WSW,248,0.0,-999.0,93,-99.99,,,-99.99,,2013-09-07 08:43:00,
2013-09-07 04:53:00,42.0,40.0,30.14,WSW,248,0.0,-999.0,94,-99.99,,,-99.99,,2013-09-07 08:53:00,
2013-09-07 05:12:00,41.0,39.0,30.14,WSW,248,0.0,-999.0,94,-99.99,,,-99.99,,2013-09-07 09:12:00,
2013-09-07 05:21:00,41.0,39.0,30.15,WSW,248,0.0,-999.0,94,-99.99,,,-99.99,,2013-09-07 09:21:00,
2013-09-07 05:42:00,41.0,39.0,30.14,WSW,248,0.0,-999.0,94,-99.99,,,-99.99,,2013-09-07 09:42:00,
2013-09-07 05:52:00,41.0,39.0,30.14,WSW,248,0.0,-999.0,94,-99.99,,,-99.99,,2013-09-07 09:52:00,
2013-09-07 06:11:00,41.0,39.0,30.14,WSW,248,0.0,-999.0,94,-99.99,,,-99.99,,2013-09-07 10:11:00,
2013-09-07 06:21:00,41.0,39.0,30.14,WSW,248,0.0,-999.0,94,-99.99,,,-99.99,,2013-09-07 10:21:00,
2013-09-07 06:41:00,41.0,39.0,30.14,WSW,248,0.0,-999.0,94,-99.99,,,-99.99,,2013-09-07 10:41:00,
2013-09-07 06:51:00,41.0,39.0,30.14,WSW,248,0.0,-999.0,94,-99.99,,,-99.99,,2013-09-07 10:51:00,
2013-09-07 07:13:00,41.0,39.0,30.14,WSW,248,0.0,-999.0,94,-99.99,,,-99.99,,2013-09-07 11:13:00,
2013-09-07 07:23:00,41.0,39.0,30.14,WSW,248,0.0,-999.0,94,-99.99,,,-99.99,,2013-09-07 11:23:00,
2013-09-07 07:43:00,42.0,40.0,30.14,WSW,248,0.0,-999.0,94,-99.99,,,-99.99,,2013-09-07 11:43:00,
2013-09-07 07:52:00,43.0,41.0,30.13,WSW,248,0.0,-999.0,94,-99.99,,,-99.99,,2013-09-07 11:52:00,
2013-09-07 08:12:00,44.0,42.0,30.13,SW,217,0.0,-999.0,94,-99.99,,,-99.99,,2013-09-07 12:12:00,
2013-09-07 08:22:00,46.0,44.0,30.13,SW,217,0.0,-999.0,93,-99.99,,,-99.99,,2013-09-07 12:22:00,
2013-09-07 08:42:00,47.0,44.0,30.13,SW,217,0.0,-999.0,90,-99.99,,,-99.99,,2013-09-07 12:42:00,
2013-09-07 08:52:00,50.0,46.0,30.13,SW,217,0.0,-999.0,85,-99.99,,,-99.99,,2013-09-07 12:52:00,
2013-09-07 09:12:00,52.0,47.0,30.12,SSW,194,1.0,-999.0,82,-99.99,,,-99.99,,2013-09-07 13:12:00,
2013-09-07 09:21:00,54.0,47.0,30.12,South,190,1.0,-999.0,78,-99.99,,,-99.99,,2013-09-07 13:21:00,
2013-09-07 09:52:00,58.0,46.0,30.12,SSW,194,3.0,-999.0,65,-99.99,,,-99.99,,2013-09-07 13:52:00,
2013-09-07 10:11:00,59.0,46.0,30.11,SSW,193,4.0,-999.0,61,-99.99,,,-99.99,,2013-09-07 14:11:00,
2013-09-07 10:22:00,61.0,47.0,30.11,SW,216,4.0,-999.0,59,-99.99,,,-99.99,,2013-09-07 14:22:00,
2013-09-07 10:52:00,64.0,47.0,30.11,South,189,5.0,-999.0,55,-99.99,,,-99.99,,2013-09-07 14:52:00,
2013-09-07 11:11:00,65.0,47.0,30.10,WNW,284,5.0,-999.0,52,-99.99,,,-99.99,,2013-09-07 15:11:00,
2013-09-07 11:23:00,65.0,46.0,30.09,SSW,192,5.0,-999.0,51,-99.99,,,-99.99,,2013-09-07 15:23:00,
2013-09-07 11:44:00,66.0,47.0,30.09,West,269,4.0,-999.0,50,-99.99,,,-99.99,,2013-09-07 15:44:00,
2013-09-07 11:54:00,67.0,47.0,30.09,SW,235,4.0,-999.0,48,-99.99,,,-99.99,,2013-09-07 15:54:00,
2013-09-07 12:13:00,68.0,48.0,30.09,WNW,288,4.0,-999.0,48,-99.99,,,-99.99,,2013-09-07 16:13:00,
2013-09-07 12:24:00,69.0,47.0,30.07,WSW,249,5.0,-999.0,46,-99.99,,,-99.99,,2013-09-07 16:24:00,
2013-09-07 12:43:00,70.0,48.0,30.07,SSW,195,4.0,-999.0,46,-99.99,,,-99.99,,2013-09-07 16:43:00,
2013-09-07 12:53:00,69.0,48.0,30.06,SSW,212,5.0,-999.0,47,-99.99,,,-99.99,,2013-09-07 16:53:00,
2013-09-07 13:12:00,69.0,48.0,30.06,SSW,194,4.0,-999.0,48,-99.99,,,-99.99,,2013-09-07 17:12:00,
2013-09-07 13:24:00,71.0,49.0,30.04,SSW,202,6.0,-999.0,46,-99.99,,,-99.99,,2013-09-07 17:24:00,
2013-09-07 13:43:00,70.0,48.0,30.04,ESE,123,6.0,-999.0,46,-99.99,,,-99.99,,2013-09-07 17:43:00,
2013-09-07 13:52:00,70.0,49.0,30.03,SW,233,5.0,-999.0,48,-99.99,,,-99.99,,2013-09-07 17:52:00,
2013-09-07 14:13:00,72.0,49.0,30.02,SW,228,5.0,-999.0,45,-99.99,,,-99.99,,2013-09-07 18:13:00,
2013-09-07 14:22:00,71.0,49.0,30.02,SSW,213,4.0,-999.0,46,-99.99,,,-99.99,,2013-09-07 18:22:00,
2013-09-07 14:43:00,71.0,50.0,30.01,SW,223,4.0,-999.0,47,-99.99,,,-99.99,,2013-09-07 18:43:00,
2013-09-07 14:52:00,70.0,50.0,30.01,SW,225,5.0,-999.0,49,-99.99,,,-99.99,,2013-09-07 18:52:00,
2013-09-07 15:11:00,70.0,50.0,30.01,WSW,255,2.0,-999.0,50,-99.99,,,-99.99,,2013-09-07 19:11:00,
2013-09-07 15:22:00,68.0,50.0,30.01,SW,227,3.0,-999.0,53,-99.99,,,-99.99,,2013-09-07 19:22:00,
2013-09-07 15:52:00,67.0,52.0,30.01,WNW,282,1.0,-999.0,59,-99.99,,,-99.99,,2013-09-07 19:52:00,
2013-09-07 16:12:00,66.0,50.0,30.01,NW,323,1.0,-999.0,57,-99.99,,,-99.99,,2013-09-07 20:12:00,
2013-09-07 16:22:00,65.0,51.0,30.00,NW,304,1.0,-999.0,60,-99.99,,,-99.99,,2013-09-07 20:22:00,
2013-09-07 16:53:00,65.0,52.0,29.99,NW,304,0.0,-999.0,63,-99.99,,,-99.99,,2013-09-07 20:53:00,
2013-09-07 17:12:00,65.0,52.0,30.00,WNW,291,1.0,-999.0,63,-99.99,,,-99.99,,2013-09-07 21:12:00,
2013-09-07 17:22:00,64.0,52.0,29.99,WNW,291,0.0,-999.0,66,-99.99,,,-99.99,,2013-09-07 21:22:00,
2013-09-07 17:54:00,64.0,53.0,29.98,WSW,246,1.0,-999.0,68,-99.99,,,-99.99,,2013-09-07 21:54:00,
2013-09-07 18:13:00,64.0,54.0,29.98,South,176,0.0,-999.0,70,-99.99,,,-99.99,,2013-09-07 22:13:00,
2013-09-07 18:24:00,63.0,53.0,29.98,South,180,1.0,-999.0,69,-99.99,,,-99.99,,2013-09-07 22:24:00,
2013-09-07 18:43:00,63.0,54.0,29.97,South,180,0.0,-999.0,72,-99.99,,,-99.99,,2013-09-07 22:43:00,
2013-09-07 18:53:00,62.0,55.0,29.97,South,180,1.0,-999.0,79,-99.99,,,-99.99,,2013-09-07 22:53:00,
2013-09-07 19:12:00,61.0,55.0,29.97,South,180,0.0,-999.0,82,-99.99,,,-99.99,,2013-09-07 23:12:00,
2013-09-07 19:23:00,61.0,56.0,29.97,South,180,0.0,-999.0,83,-99.99,,,-99.99,,2013-09-07 23:23:00,
2013-09-07 19:42:00,60.0,56.0,29.97,South,180,0.0,-999.0,87,-99.99,,,-99.99,,2013-09-07 23:42:00,
2013-09-07 19:52:00,59.0,56.0,29.97,South,180,0.0,-999.0,89,-99.99,,,-99.99,,2013-09-07 23:52:00,
2013-09-07 20:11:00,58.0,55.0,29.97,South,180,0.0,-999.0,90,-99.99,,,-99.99,,2013-09-08 00:11:00,
2013-09-07 20:22:00,58.0,55.0,29.96,South,180,0.0,-999.0,91,-99.99,,,-99.99,,2013-09-08 00:22:00,
2013-09-07 20:42:00,58.0,55.0,29.97,South,180,0.0,-999.0,91,-99.99,,,-99.99,,2013-09-08 00:42:00,
2013-09-07 20:52:00,57.0,54.0,29.96,South,180,0.0,-999.0,91,-99.99,,,-99.99,,2013-09-08 00:52:00,
2013-09-07 21:11:00,57.0,54.0,29.96,South,180,0.0,-999.0,91,-99.99,,,-99.99,,2013-09-08 01:11:00,
2013-09-07 21:22:00,57.0,55.0,29.96,South,180,0.0,-999.0,92,-99.99,,,-99.99,,2013-09-08 01:22:00,
2013-09-07 21:42:00,57.0,55.0,29.95,South,180,0.0,-999.0,92,-99.99,,,-99.99,,2013-09-08 01:42:00,
2013-09-07 21:52:00,56.0,54.0,29.95,South,180,0.0,-999.0,92,-99.99,,,-99.99,,2013-09-08 01:52:00,
2013-09-07 22:12:00,56.0,54.0,29.95,South,180,0.0,-999.0,92,-99.99,,,-99.99,,2013-09-08 02:12:00,
2013-09-07 22:23:00,56.0,54.0,29.95,South,180,0.0,-999.0,92,-99.99,,,-99.99,,2013-09-08 02:23:00,
2013-09-07 22:43:00,56.0,54.0,29.95,South,180,0.0,-999.0,93,-99.99,,,-99.99,,2013-09-08 02:43:00,
2013-09-07 22:52:00,56.0,54.0,29.94,South,180,1.0,-999.0,92,-99.99,,,-99.99,,2013-09-08 02:52:00,
2013-09-07 23:12:00,56.0,53.0,29.94,South,184,2.0,-999.0,90,-99.99,,,-99.99,,2013-09-08 03:12:00,
2013-09-07 23:23:00,57.0,54.0,29.93,SSW,199,2.0,-999.0,89,-99.99,,,-99.99,,2013-09-08 03:23:00,
2013-09-07 23:44:00,57.0,53.0,29.93,SSW,195,1.0,-999.0,88,-99.99,,,-99.99,,2013-09-08 03:44:00,
2013-09-07 23:54:00,57.0,54.0,29.93,SSW,203,2.0,-999.0,89,-99.99,,,-99.99,,2013-09-08 03:54:00,